Time;durP1;ratioP1;P1;durP2;ratioP2;P2;SDS_P1;SDS_P2;PMS_P1;PMS_P2;Temp;Humidity;BMP_temperature;BMP_pressure;BME280_temperature;BME280_humidity;BME280_pressure;Samples;Min_cycle;Max_cycle;Signal;HPM_P1;HPM_P2
2020/12/09 00:01:12;;;;;;;;;12.50;11.25;;;;;13.78;52.03;98045.22;4840633;28;103722;-78
2020/12/09 00:03:38;;;;;;;;;15.00;12.00;;;;;13.76;52.08;98029.16;4838692;28;102354;-78
2020/12/09 00:06:05;;;;;;;;;16.75;14.50;;;;;13.76;51.27;98040.03;4836269;28;105479;-78
2020/12/09 00:08:32;;;;;;;;;15.75;12.00;;;;;13.76;51.90;98044.63;4844942;28;102302;-78
2020/12/09 00:10:59;;;;;;;;;15.25;14.00;;;;;13.74;51.55;98046.75;4836164;28;102672;-78
2020/12/09 00:13:26;;;;;;;;;15.00;12.75;;;;;13.75;51.16;98049.25;4842133;28;102575;-78
2020/12/09 00:15:53;;;;;;;;;14.50;11.00;;;;;13.73;51.77;98054.06;4838520;28;104073;-78
2020/12/09 00:18:19;;;;;;;;;12.00;12.00;;;;;13.71;52.24;98049.94;4845476;28;102325;-78
2020/12/09 00:20:46;;;;;;;;;14.75;11.00;;;;;13.72;52.15;98051.63;4838729;28;102361;-78
2020/12/09 00:23:13;;;;;;;;;13.25;11.50;;;;;13.70;51.71;98051.84;4843563;28;105790;-78
2020/12/09 00:25:40;;;;;;;;;11.50;10.50;;;;;13.71;51.25;98052.66;4836344;28;110071;-79
2020/12/09 00:28:07;;;;;;;;;11.75;10.50;;;;;13.69;52.28;98057.50;4837962;28;102137;-78
2020/12/09 00:30:33;;;;;;;;;16.00;13.00;;;;;13.68;52.33;98059.41;4842278;28;102941;-78
2020/12/09 00:33:00;;;;;;;;;14.50;11.00;;;;;13.66;51.95;98061.50;4842360;28;103801;-78
2020/12/09 00:35:26;;;;;;;;;13.50;13.25;;;;;13.68;52.34;98055.84;4826291;28;104501;-78
2020/12/09 00:37:53;;;;;;;;;12.25;9.75;;;;;13.68;51.92;98066.72;4835655;28;103626;-78
2020/12/09 00:40:20;;;;;;;;;12.00;9.25;;;;;13.66;51.60;98061.50;4843968;28;103158;-78
2020/12/09 00:42:47;;;;;;;;;16.00;13.50;;;;;13.66;51.97;98064.22;4835332;28;102495;-78
2020/12/09 00:45:14;;;;;;;;;15.50;10.75;;;;;13.66;51.42;98068.84;4843637;28;104062;-79
2020/12/09 00:47:41;;;;;;;;;15.75;11.75;;;;;13.63;52.30;98072.03;4843664;28;102492;-79
2020/12/09 00:52:38;;;;;;;;;10.25;10.00;;;;;13.62;51.14;98073.09;4844989;28;102685;-79
2020/12/09 00:55:05;;;;;;;;;13.25;12.00;;;;;13.63;51.95;98069.31;4838129;28;104300;-79
2020/12/09 00:57:32;;;;;;;;;14.50;10.00;;;;;13.62;52.01;98073.91;4837623;28;103846;-79
2020/12/09 00:59:59;;;;;;;;;12.75;10.00;;;;;13.60;51.63;98069.78;4837310;28;103102;-79
2020/12/09 01:02:26;;;;;;;;;11.50;9.25;;;;;13.60;51.86;98069.78;4845303;28;102678;-79
2020/12/09 01:04:52;;;;;;;;;14.00;11.00;;;;;13.58;52.23;98070.00;4839802;28;104383;-79
2020/12/09 01:07:19;;;;;;;;;10.75;9.75;;;;;13.59;51.29;98068.13;4834389;28;102857;-79
2020/12/09 01:09:46;;;;;;;;;11.50;9.75;;;;;13.57;51.24;98068.34;4813336;28;103831;-79
2020/12/09 01:12:13;;;;;;;;;10.00;9.75;;;;;13.58;52.36;98066.47;4816049;28;102741;-79
2020/12/09 01:14:40;;;;;;;;;7.25;5.75;;;;;13.57;51.89;98070.25;4807577;28;110630;-79
2020/12/09 01:17:07;;;;;;;;;9.00;9.00;;;;;13.57;51.23;98067.53;4837748;28;103306;-79
2020/12/09 01:19:33;;;;;;;;;11.25;9.75;;;;;13.54;51.28;98068.81;4837794;28;102287;-79
2020/12/09 01:22:07;;;;;;;;;12.00;10.00;;;;;13.54;51.89;98063.41;4841456;28;102250;-79
2020/12/09 01:24:34;;;;;;;;;9.75;8.50;;;;;13.53;51.55;98069.03;4841328;28;104261;-79
2020/12/09 01:27:01;;;;;;;;;13.00;10.00;;;;;13.52;52.13;98070.94;4838898;28;104381;-79
2020/12/09 01:29:27;;;;;;;;;10.50;9.00;;;;;13.52;51.86;98073.66;4839339;28;102678;-78
2020/12/09 01:32:00;;;;;;;;;12.25;9.25;;;;;13.51;52.17;98060.31;4839507;28;103822;-79
2020/12/09 01:34:27;;;;;;;;;11.00;8.75;;;;;13.51;52.17;98061.13;4856958;28;104093;-79
2020/12/09 01:36:54;;;;;;;;;9.50;9.00;;;;;13.50;52.08;98069.53;4837590;28;103760;-79
2020/12/09 01:39:21;;;;;;;;;11.75;9.50;;;;;13.48;51.89;98060.75;4841499;28;102947;-79
2020/12/09 01:41:48;;;;;;;;;11.00;10.50;;;;;13.48;51.58;98067.03;4840768;28;102209;-79
2020/12/09 01:44:15;;;;;;;;;10.00;8.50;;;;;13.48;51.98;98055.34;4842622;28;104037;-79
2020/12/09 01:46:41;;;;;;;;;9.75;8.50;;;;;13.48;51.24;98052.63;4839951;28;103533;-78
2020/12/09 01:49:08;;;;;;;;;9.75;8.00;;;;;13.47;52.20;98069.97;4839201;28;103866;-78
2020/12/09 01:51:35;;;;;;;;;10.25;8.50;;;;;13.46;52.16;98054.75;4823983;28;106663;-78
2020/12/09 01:54:01;;;;;;;;;10.25;10.25;;;;;13.44;51.34;98062.28;4831995;28;105372;-78
2020/12/09 01:56:28;;;;;;;;;10.00;7.50;;;;;13.44;51.54;98052.25;4826490;28;102955;-78
2020/12/09 01:58:55;;;;;;;;;10.25;8.75;;;;;13.43;52.04;98047.88;4837695;28;104063;-78
2020/12/09 02:01:22;;;;;;;;;8.50;7.00;;;;;13.45;52.29;98044.94;4805622;28;102417;-78
2020/12/09 02:03:49;;;;;;;;;10.50;10.00;;;;;13.43;51.10;98038.91;4809589;28;104200;-78
2020/12/09 02:06:17;;;;;;;;;8.00;8.00;;;;;13.43;52.38;98028.03;4815311;28;102355;-78
2020/12/09 02:08:44;;;;;;;;;10.50;8.25;;;;;13.42;52.06;98034.56;4826961;28;104288;-78
2020/12/09 02:11:13;;;;;;;;;8.00;7.00;;;;;13.40;51.88;98046.47;4828605;28;102576;-78
2020/12/09 02:13:45;;;;;;;;;10.25;7.75;;;;;13.39;51.64;98047.53;4835299;28;108891;-78
2020/12/09 02:16:14;;;;;;;;;9.25;7.50;;;;;13.41;51.18;98044.59;4844397;28;102535;-78
2020/12/09 02:18:42;;;;;;;;;9.00;8.00;;;;;13.38;51.68;98043.16;4836075;28;102720;-78
2020/12/09 02:21:11;;;;;;;;;12.75;8.00;;;;;13.37;51.80;98044.22;4830509;28;104682;-78
2020/12/09 02:23:39;;;;;;;;;8.25;7.00;;;;;13.36;51.86;98045.28;4835419;28;103059;-78
2020/12/09 02:26:07;;;;;;;;;8.50;8.00;;;;;13.35;52.12;98046.34;4836207;28;104598;-78
2020/12/09 02:28:36;;;;;;;;;7.00;7.00;;;;;13.36;52.38;98039.84;4837021;28;104155;-78
2020/12/09 02:31:05;;;;;;;;;11.25;10.00;;;;;13.34;52.39;98039.25;4829663;28;102369;-78
2020/12/09 02:33:36;;;;;;;;;8.00;7.75;;;;;13.34;51.55;98036.53;4845621;28;104089;-78
2020/12/09 02:36:08;;;;;;;;;11.00;9.00;;;;;13.33;52.35;98031.31;4835064;28;105367;-78
2020/12/09 02:38:36;;;;;;;;;9.25;7.25;;;;;13.33;51.82;98026.72;4837204;28;104066;-78
2020/12/09 02:41:04;;;;;;;;;6.00;6.00;;;;;13.33;52.51;98015.03;4835742;28;103033;-78
2020/12/09 02:43:32;;;;;;;;;7.50;6.00;;;;;13.32;51.58;98024.25;4844869;28;104085;-78
2020/12/09 02:46:00;;;;;;;;;8.25;7.75;;;;;13.30;52.33;98024.47;4840881;28;102504;-78
2020/12/09 02:48:28;;;;;;;;;7.75;6.00;;;;;13.31;52.09;98020.72;4859029;28;102159;-78
2020/12/09 02:50:56;;;;;;;;;9.00;8.00;;;;;13.28;51.45;98013.00;4837276;28;102252;-78
2020/12/09 02:53:23;;;;;;;;;8.25;7.50;;;;;13.28;51.75;98015.72;4840761;28;103966;-78
2020/12/09 02:55:49;;;;;;;;;6.75;6.50;;;;;13.28;52.41;98013.00;4842012;28;105468;-78
2020/12/09 02:58:16;;;;;;;;;7.75;7.00;;;;;13.28;51.38;98012.22;4846625;28;102517;-78
2020/12/09 03:00:43;;;;;;;;;7.25;7.25;;;;;13.27;51.87;98016.81;4838808;28;103748;-78
2020/12/09 03:03:09;;;;;;;;;6.50;6.00;;;;;13.26;51.73;98012.44;4838434;28;104433;-78
2020/12/09 03:05:36;;;;;;;;;9.25;6.25;;;;;13.25;51.24;98008.06;4836154;28;103297;-78
2020/12/09 03:08:03;;;;;;;;;7.50;7.00;;;;;13.24;52.46;98016.44;4840105;28;102306;-78
2020/12/09 03:10:30;;;;;;;;;5.25;4.25;;;;;13.24;51.36;98022.69;4836858;28;102873;-78
2020/12/09 03:12:57;;;;;;;;;7.00;5.00;;;;;13.22;51.92;98030.25;4836229;28;106219;-78
2020/12/09 03:15:24;;;;;;;;;6.50;6.00;;;;;13.23;51.44;98031.91;4839281;28;103169;-78
2020/12/09 03:17:51;;;;;;;;;9.25;8.00;;;;;13.22;51.75;98032.97;4844130;28;102275;-78
2020/12/09 03:20:22;;;;;;;;;7.75;6.25;;;;;13.22;52.05;98030.25;4839510;28;103031;-78
2020/12/09 03:22:49;;;;;;;;;5.75;5.25;;;;;13.20;51.30;98024.22;4838138;28;104195;-78
2020/12/09 03:25:15;;;;;;;;;7.00;5.50;;;;;13.20;51.41;98020.66;4846075;28;102604;-78
2020/12/09 03:27:42;;;;;;;;;7.00;6.00;;;;;13.18;51.66;98026.34;4835190;28;102879;-78
2020/12/09 03:30:09;;;;;;;;;7.00;5.25;;;;;13.18;51.35;98029.06;4842830;28;102239;-78
2020/12/09 03:32:36;;;;;;;;;7.00;6.75;;;;;13.18;51.61;98028.22;4843900;28;104207;-78
2020/12/09 03:35:02;;;;;;;;;7.00;5.00;;;;;13.17;52.30;98015.72;4838434;28;102353;-78
2020/12/09 03:37:29;;;;;;;;;7.00;7.00;;;;;13.14;52.25;98017.00;4840960;28;103251;-77
2020/12/09 03:39:55;;;;;;;;;5.50;3.75;;;;;13.14;51.47;98019.72;4841455;28;102800;-78
2020/12/09 03:42:22;;;;;;;;;7.75;5.00;;;;;13.13;51.48;98028.94;4840344;28;103802;-78
2020/12/09 03:44:49;;;;;;;;;7.00;5.75;;;;;13.14;52.20;98025.16;4839160;28;102661;-78
2020/12/09 03:47:15;;;;;;;;;8.25;6.00;;;;;13.14;52.35;98027.88;4845814;28;103369;-78
2020/12/09 03:49:42;;;;;;;;;7.75;6.00;;;;;13.15;51.38;98028.72;4842784;28;102619;-78
2020/12/09 03:52:09;;;;;;;;;6.00;5.25;;;;;13.12;52.32;98026.44;4831428;28;104724;-78
2020/12/09 03:54:35;;;;;;;;;6.25;6.00;;;;;13.12;52.25;98027.25;4839629;28;102651;-78
2020/12/09 03:57:02;;;;;;;;;6.00;6.00;;;;;13.12;51.73;98029.16;4842346;28;106552;-78
2020/12/09 03:59:29;;;;;;;;;7.50;6.00;;;;;13.12;51.76;98023.72;4838772;28;104143;-78
2020/12/09 04:01:55;;;;;;;;;7.00;6.00;;;;;13.11;51.60;98027.47;4839273;28;104085;-78
2020/12/09 04:04:22;;;;;;;;;7.00;6.00;;;;;13.10;51.49;98018.50;4839368;28;103931;-78
2020/12/09 04:06:49;;;;;;;;;6.00;5.25;;;;;13.10;51.96;98010.38;4841523;28;102734;-78
2020/12/09 04:09:15;;;;;;;;;5.00;5.00;;;;;13.08;51.92;98001.63;4842458;28;102492;-78
2020/12/09 04:11:42;;;;;;;;;6.50;6.00;;;;;13.08;51.98;98009.75;4835399;28;104200;-78
2020/12/09 04:14:09;;;;;;;;;6.75;5.50;;;;;13.09;51.33;98019.56;4840285;28;102722;-78
2020/12/09 04:16:35;;;;;;;;;7.25;5.00;;;;;13.08;51.50;98017.06;4844616;28;105162;-78
2020/12/09 04:19:02;;;;;;;;;5.50;4.75;;;;;13.08;52.29;98022.50;4840392;28;102253;-78
2020/12/09 04:21:29;;;;;;;;;6.25;5.25;;;;;13.07;52.29;98013.53;4835410;28;104593;-78
2020/12/09 04:23:55;;;;;;;;;5.00;4.00;;;;;13.07;51.99;98024.38;4841730;28;102229;-78
2020/12/09 04:26:22;;;;;;;;;5.75;5.50;;;;;13.06;51.45;98025.44;4839704;28;102398;-78
2020/12/09 04:28:49;;;;;;;;;7.00;5.75;;;;;13.06;52.15;98009.16;4843841;28;104095;-78
2020/12/09 04:31:16;;;;;;;;;5.25;5.00;;;;;13.05;52.44;98006.69;4840999;28;103599;-78
2020/12/09 04:34:01;;;;;;;;;6.25;4.00;;;;;13.03;51.46;98012.34;4844295;28;103046;-78
2020/12/09 04:36:28;;;;;;;;;5.25;4.50;;;;;13.04;52.16;98011.28;4781188;28;102217;-78
2020/12/09 04:38:54;;;;;;;;;4.25;4.00;;;;;13.03;52.08;98006.91;4840725;28;102264;-78
2020/12/09 04:41:21;;;;;;;;;5.25;4.00;;;;;13.02;52.29;98007.97;4836223;28;104130;-78
2020/12/09 04:43:48;;;;;;;;;4.25;3.25;;;;;13.03;51.30;98003.34;4840065;28;102537;-78
2020/12/09 04:46:15;;;;;;;;;6.00;5.75;;;;;13.03;52.14;98011.50;4840295;28;102333;-79
2020/12/09 04:48:46;;;;;;;;;6.25;5.00;;;;;13.01;51.96;98000.06;4837647;28;102202;-79
2020/12/09 04:51:40;;;;;;;;;8.00;5.00;;;;;13.00;51.45;98012.81;4836654;28;104250;-79
2020/12/09 04:54:13;;;;;;;;;6.25;5.00;;;;;13.01;51.96;97992.75;4773932;28;105535;-79
2020/12/09 04:56:52;;;;;;;;;5.50;5.00;;;;;12.99;52.30;97997.56;4844741;28;102544;-79
2020/12/09 04:59:23;;;;;;;;;6.00;4.50;;;;;12.99;52.27;98003.00;4834809;28;103700;-79
2020/12/09 05:02:04;;;;;;;;;3.75;3.25;;;;;12.99;51.68;98013.84;4844476;28;104018;-79
2020/12/09 05:04:32;;;;;;;;;4.25;3.75;;;;;12.98;52.27;98007.59;4821924;28;104783;-79
2020/12/09 05:07:09;;;;;;;;;8.50;5.00;;;;;12.97;51.50;98014.06;4841575;28;103671;-79
2020/12/09 05:09:44;;;;;;;;;3.00;2.00;;;;;12.97;51.31;98021.38;4841388;28;103754;-78
2020/12/09 05:12:15;;;;;;;;;4.75;3.25;;;;;12.94;51.37;98014.53;4844685;28;103869;-79
2020/12/09 05:14:47;;;;;;;;;6.75;5.00;;;;;12.95;51.61;98005.34;4839440;28;102335;-78
2020/12/09 05:17:16;;;;;;;;;4.00;4.00;;;;;12.94;51.75;98005.56;4837016;28;103607;-78
2020/12/09 05:19:43;;;;;;;;;4.25;4.25;;;;;12.95;51.61;98007.25;4846462;28;102942;-78
2020/12/09 05:22:19;;;;;;;;;6.00;5.00;;;;;12.94;51.56;98011.00;4839123;28;104040;-78
2020/12/09 05:24:46;;;;;;;;;8.00;8.00;;;;;12.95;52.23;98007.25;4841691;28;102121;-78
2020/12/09 05:27:13;;;;;;;;;8.25;5.00;;;;;12.93;52.46;98009.34;4840379;28;103484;-78
2020/12/09 05:29:44;;;;;;;;;6.00;5.25;;;;;12.94;52.78;98011.00;4820782;28;104099;-78
2020/12/09 05:32:11;;;;;;;;;6.25;5.00;;;;;12.95;52.11;98001.81;4839276;28;104035;-78
2020/12/09 05:34:37;;;;;;;;;4.75;4.75;;;;;12.94;52.29;98005.56;4838392;28;102351;-78
2020/12/09 05:37:05;;;;;;;;;4.50;3.75;;;;;12.93;52.59;98003.91;4841327;28;102740;-78
2020/12/09 05:39:33;;;;;;;;;6.00;5.00;;;;;12.92;51.69;98008.50;4843125;28;102666;-78
2020/12/09 05:42:20;;;;;;;;;4.50;4.00;;;;;12.90;52.50;98004.38;4841901;28;104052;-78
2020/12/09 05:44:47;;;;;;;;;4.00;3.00;;;;;12.89;52.18;98008.97;4839259;28;104423;-79
2020/12/09 05:47:15;;;;;;;;;5.00;5.00;;;;;12.90;51.92;98012.53;4840221;28;102494;-79
2020/12/09 05:49:42;;;;;;;;;6.50;5.00;;;;;12.88;52.29;98012.75;4837419;28;102890;-79
2020/12/09 05:52:16;;;;;;;;;5.75;5.75;;;;;12.91;52.48;98022.31;4838638;28;103812;-79
2020/12/09 05:54:45;;;;;;;;;5.00;4.75;;;;;12.90;51.66;98026.09;4837003;28;102357;-78
2020/12/09 05:57:13;;;;;;;;;5.75;4.25;;;;;12.89;51.68;98036.13;4842323;28;102477;-79
2020/12/09 05:59:44;;;;;;;;;5.25;4.00;;;;;12.88;52.31;98025.47;4824640;28;103028;-79
2020/12/09 06:02:22;;;;;;;;;4.25;4.00;;;;;12.88;51.99;98033.63;4835544;28;104276;-78
2020/12/09 06:04:55;;;;;;;;;4.00;4.00;;;;;12.87;52.46;98034.69;4827636;28;102765;-79
2020/12/09 06:07:23;;;;;;;;;4.00;4.00;;;;;12.85;52.15;98032.22;4837947;28;103504;-78
2020/12/09 06:10:04;;;;;;;;;3.00;3.00;;;;;12.85;52.23;98036.81;4827161;28;103844;-79
2020/12/09 06:12:50;;;;;;;;;4.75;3.00;;;;;12.85;52.24;98042.22;4835207;28;104026;-79
2020/12/09 06:15:17;;;;;;;;;4.25;4.00;;;;;12.84;52.25;98059.56;4831325;28;103212;-79
2020/12/09 06:17:44;;;;;;;;;3.75;3.75;;;;;12.84;51.96;98071.25;4831819;28;103475;-79
2020/12/09 06:20:11;;;;;;;;;2.75;2.00;;;;;12.84;51.84;98059.56;4843946;28;102424;-78
2020/12/09 06:22:37;;;;;;;;;3.00;2.75;;;;;12.84;52.12;98062.28;4840583;28;104059;-79
2020/12/09 06:25:08;;;;;;;;;4.00;3.50;;;;;12.82;51.59;98073.38;4834795;28;102515;-79
2020/12/09 06:27:36;;;;;;;;;4.75;3.75;;;;;12.82;51.61;98067.13;4832965;28;102253;-79
2020/12/09 06:30:06;;;;;;;;;5.00;3.00;;;;;12.82;52.11;98080.69;4848077;28;102210;-79
2020/12/09 06:32:48;;;;;;;;;4.00;3.00;;;;;12.81;52.11;98081.72;4844984;28;104122;-79
2020/12/09 06:35:19;;;;;;;;;3.00;3.00;;;;;12.81;52.51;98079.84;4840496;28;102188;-79
2020/12/09 06:38:07;;;;;;;;;6.00;4.00;;;;;12.80;51.98;98072.75;4838652;28;102496;-79
2020/12/09 06:40:35;;;;;;;;;4.00;3.00;;;;;12.80;51.96;98080.91;4786324;28;102255;-79
2020/12/09 06:43:08;;;;;;;;;4.75;4.00;;;;;12.77;51.65;98073.22;4829853;28;104114;-79
2020/12/09 06:45:45;;;;;;;;;4.75;4.75;;;;;12.78;52.15;98074.06;4842685;28;102390;-79
2020/12/09 06:48:12;;;;;;;;;4.75;3.50;;;;;12.80;52.17;98071.94;4842283;28;104795;-79
2020/12/09 06:50:39;;;;;;;;;4.25;4.25;;;;;12.78;51.50;98071.34;4844421;28;105259;-79
2020/12/09 06:53:15;;;;;;;;;5.00;4.00;;;;;12.78;52.20;98071.34;4840611;28;104169;-79
2020/12/09 06:55:43;;;;;;;;;5.25;3.50;;;;;12.78;52.41;98076.78;4841988;28;102433;-78
2020/12/09 06:58:29;;;;;;;;;7.25;3.25;;;;;12.77;52.23;98080.53;4858595;28;101987;-78
2020/12/09 07:01:05;;;;;;;;;4.00;4.00;;;;;12.76;52.02;98074.28;4780989;28;102712;-79
2020/12/09 07:03:39;;;;;;;;;4.50;4.25;;;;;12.75;52.22;98079.91;4844026;28;103506;-79
2020/12/09 07:06:21;;;;;;;;;5.00;3.00;;;;;12.74;51.92;98081.00;4842561;28;102412;-78
2020/12/09 07:08:48;;;;;;;;;3.00;2.25;;;;;12.74;52.33;98081.00;4839674;28;102381;-79
2020/12/09 07:11:16;;;;;;;;;3.00;3.00;;;;;12.75;51.81;98079.91;4845344;28;102315;-79
2020/12/09 07:13:43;;;;;;;;;4.00;3.00;;;;;12.74;52.16;98081.78;4843656;28;104072;-79
2020/12/09 07:16:10;;;;;;;;;4.00;2.50;;;;;12.73;52.50;98079.34;4839102;28;102749;-79
2020/12/09 07:18:37;;;;;;;;;3.00;3.00;;;;;12.73;52.16;98090.19;4841280;28;102617;-79
2020/12/09 07:21:05;;;;;;;;;3.50;3.50;;;;;12.71;51.88;98095.81;4847777;28;102225;-79
2020/12/09 07:23:35;;;;;;;;;4.00;4.00;;;;;12.72;51.82;98094.78;4841595;28;104026;-79
2020/12/09 07:26:02;;;;;;;;;4.25;3.00;;;;;12.72;51.91;98104.78;4845656;28;102156;-78
2020/12/09 07:28:32;;;;;;;;;5.00;3.75;;;;;12.72;52.10;98105.63;4843809;28;102133;-79
2020/12/09 07:31:06;;;;;;;;;4.00;4.00;;;;;12.71;52.22;98092.28;4842855;28;102206;-78
2020/12/09 07:33:33;;;;;;;;;3.75;2.00;;;;;12.70;51.37;98086.03;4839849;28;104055;-78
2020/12/09 07:36:04;;;;;;;;;3.00;3.00;;;;;12.70;51.46;98085.22;4843809;28;103524;-79
2020/12/09 07:38:31;;;;;;;;;4.00;4.00;;;;;12.72;51.54;98104.78;4843996;28;102478;-79
2020/12/09 07:41:01;;;;;;;;;3.75;3.00;;;;;12.69;52.09;98100.66;4841497;28;102186;-79
2020/12/09 07:43:28;;;;;;;;;3.50;3.50;;;;;12.69;52.39;98105.25;4851111;28;104087;-78
2020/12/09 07:46:01;;;;;;;;;4.00;3.00;;;;;12.68;52.34;98101.72;4842762;28;102510;-78
2020/12/09 07:48:29;;;;;;;;;3.75;3.00;;;;;12.69;51.78;98099.84;4843582;28;102159;-79
2020/12/09 07:50:56;;;;;;;;;4.25;4.25;;;;;12.68;52.09;98101.72;4843757;28;102659;-79
2020/12/09 07:53:22;;;;;;;;;4.00;4.00;;;;;12.68;51.42;98103.59;4840183;28;104135;-78
2020/12/09 07:55:50;;;;;;;;;3.25;3.00;;;;;12.68;51.71;98103.59;4843516;28;102368;-79
2020/12/09 07:58:17;;;;;;;;;4.50;4.50;;;;;12.67;51.91;98099.22;4843058;28;103887;-79
2020/12/09 08:00:48;;;;;;;;;4.00;3.00;;;;;12.66;51.61;98114.66;4844125;28;102244;-79
2020/12/09 08:03:22;;;;;;;;;2.25;2.25;;;;;12.67;51.43;98126.34;4835777;28;109693;-79
2020/12/09 08:05:49;;;;;;;;;4.75;4.00;;;;;12.66;51.61;98122.78;4838747;28;103413;-79
2020/12/09 08:08:20;;;;;;;;;2.00;2.00;;;;;12.68;52.00;98136.13;4840038;28;103727;-79
2020/12/09 08:10:47;;;;;;;;;4.00;4.00;;;;;12.66;52.32;98139.06;4843433;28;103633;-78
2020/12/09 08:13:21;;;;;;;;;3.50;3.50;;;;;12.65;51.68;98147.44;4845146;28;108934;-79
2020/12/09 08:16:08;;;;;;;;;3.25;3.00;;;;;12.65;51.58;98152.88;4843648;28;102112;-79
2020/12/09 08:18:36;;;;;;;;;3.75;3.00;;;;;12.64;51.66;98153.94;4783486;28;102346;-78
2020/12/09 08:21:02;;;;;;;;;5.25;4.00;;;;;12.64;51.76;98156.63;4841927;28;102601;-78
2020/12/09 08:23:43;;;;;;;;;2.75;2.00;;;;;12.63;52.31;98147.66;4842635;28;104247;-79
2020/12/09 08:26:10;;;;;;;;;4.25;4.25;;;;;12.64;51.88;98143.06;4847894;28;102299;-79
2020/12/09 08:28:37;;;;;;;;;4.25;2.75;;;;;12.61;52.16;98144.34;4843682;28;103435;-78
2020/12/09 08:31:14;;;;;;;;;3.00;2.00;;;;;12.63;52.20;98155.81;4850506;28;103862;-79
2020/12/09 08:33:41;;;;;;;;;3.00;3.00;;;;;12.61;51.41;98155.19;4842845;28;104086;-79
2020/12/09 08:36:08;;;;;;;;;5.50;3.50;;;;;12.61;51.62;98147.06;4847450;28;102518;-79
2020/12/09 08:38:42;;;;;;;;;4.75;4.25;;;;;12.61;51.49;98143.53;4842588;28;102207;-79
2020/12/09 08:41:31;;;;;;;;;2.75;2.75;;;;;12.61;51.83;98141.63;4842654;28;102280;-78
2020/12/09 08:44:04;;;;;;;;;3.75;3.00;;;;;12.61;52.01;98144.34;4840153;28;104254;-79
2020/12/09 08:46:33;;;;;;;;;3.00;3.00;;;;;12.60;52.12;98148.13;4846182;28;104004;-79
2020/12/09 08:49:00;;;;;;;;;3.50;2.75;;;;;12.61;51.28;98148.97;4839219;28;102315;-79
2020/12/09 08:51:28;;;;;;;;;3.75;3.00;;;;;12.62;51.47;98147.88;4844040;28;103716;-78
2020/12/09 08:53:56;;;;;;;;;4.00;3.50;;;;;12.60;51.44;98153.56;4845082;28;104349;-78
2020/12/09 08:56:29;;;;;;;;;3.00;2.50;;;;;12.60;51.64;98153.56;4847618;28;102159;-78
2020/12/09 08:58:56;;;;;;;;;3.25;2.75;;;;;12.59;52.42;98159.19;4843208;28;103343;-78
2020/12/09 09:01:23;;;;;;;;;3.00;2.75;;;;;12.56;52.13;98152.34;4843483;28;102224;-78
2020/12/09 09:04:04;;;;;;;;;2.00;2.00;;;;;12.59;52.11;98159.19;4851407;28;104119;-78
2020/12/09 09:06:30;;;;;;;;;3.00;3.00;;;;;12.58;51.45;98157.53;4840335;28;102125;-78
2020/12/09 09:08:57;;;;;;;;;2.75;2.25;;;;;12.56;51.48;98159.66;4843495;28;102645;-78
2020/12/09 09:11:24;;;;;;;;;2.50;2.50;;;;;12.57;51.55;98155.84;4841516;28;102590;-78
2020/12/09 09:13:54;;;;;;;;;4.75;3.00;;;;;12.56;51.63;98165.91;4844463;28;104059;-78
2020/12/09 09:16:21;;;;;;;;;2.75;2.75;;;;;12.57;51.53;98161.28;4844211;28;102186;-78
2020/12/09 09:18:49;;;;;;;;;2.00;2.00;;;;;12.57;52.13;98166.72;4844258;28;102635;-78
2020/12/09 09:21:15;;;;;;;;;4.00;3.75;;;;;12.56;51.74;98162.38;4848785;28;102749;-78
2020/12/09 09:23:42;;;;;;;;;3.00;3.00;;;;;12.54;52.01;98154.44;4825694;28;104084;-78
2020/12/09 09:26:12;;;;;;;;;3.00;3.00;;;;;12.54;52.18;98154.44;4843136;28;102213;-78
2020/12/09 09:28:39;;;;;;;;;4.00;3.00;;;;;12.55;51.95;98158.81;4842774;28;102140;-78
2020/12/09 09:31:06;;;;;;;;;2.25;2.25;;;;;12.56;51.44;98151.50;4849772;28;102487;-78
2020/12/09 09:33:33;;;;;;;;;4.50;3.25;;;;;12.55;51.48;98157.97;4842097;28;104090;-78
2020/12/09 09:36:01;;;;;;;;;3.00;3.00;;;;;12.53;51.84;98153.59;4843721;28;102356;-78
2020/12/09 09:38:27;;;;;;;;;3.00;2.50;;;;;12.53;51.60;98150.91;4849439;28;103724;-78
2020/12/09 09:40:54;;;;;;;;;2.50;2.00;;;;;12.53;51.50;98159.03;4843541;28;102766;-78
2020/12/09 09:43:21;;;;;;;;;4.00;3.00;;;;;12.51;51.81;98153.03;4844703;28;104046;-78
2020/12/09 09:45:49;;;;;;;;;2.75;2.75;;;;;12.51;51.50;98142.16;4844247;28;102633;-78
2020/12/09 09:48:16;;;;;;;;;2.50;2.50;;;;;12.52;52.18;98143.81;4848497;28;102234;-78
2020/12/09 09:50:42;;;;;;;;;2.00;2.00;;;;;12.52;52.20;98140.25;4841990;28;102385;-78
2020/12/09 09:53:09;;;;;;;;;2.50;2.00;;;;;12.51;51.45;98134.03;4841543;28;104025;-77
2020/12/09 09:55:36;;;;;;;;;3.75;3.00;;;;;12.51;52.06;98131.31;4844893;28;101984;-78
2020/12/09 09:58:03;;;;;;;;;3.00;3.00;;;;;12.50;51.42;98145.94;4858536;28;102554;-78
2020/12/09 10:00:30;;;;;;;;;0.00;0.00;;;;;12.50;51.45;98143.22;4840251;28;102687;-78
2020/12/09 10:02:57;;;;;;;;;1.50;1.50;;;;;12.50;52.20;98140.50;4840091;28;103894;-79
2020/12/09 10:05:26;;;;;;;;;2.00;2.00;;;;;12.50;52.12;98139.69;4847354;28;102183;-79
2020/12/09 10:07:53;;;;;;;;;5.00;3.00;;;;;12.49;52.03;98155.09;4841178;28;104138;-79
2020/12/09 10:10:20;;;;;;;;;2.25;2.25;;;;;12.51;51.92;98150.31;4844788;28;103805;-79
2020/12/09 10:12:46;;;;;;;;;2.00;2.00;;;;;12.50;51.49;98151.34;4846602;28;108994;-79
2020/12/09 10:15:13;;;;;;;;;2.00;2.00;;;;;12.48;51.56;98153.44;4843153;28;102306;-78
2020/12/09 10:17:48;;;;;;;;;5.25;3.00;;;;;12.49;51.52;98138.84;4842309;28;102266;-78
2020/12/09 10:20:16;;;;;;;;;2.25;2.00;;;;;12.49;51.45;98136.13;4844054;28;102592;-78
2020/12/09 10:22:43;;;;;;;;;3.00;3.00;;;;;12.48;52.03;98129.03;4840311;28;104479;-78
2020/12/09 10:25:10;;;;;;;;;3.25;3.00;;;;;12.49;51.57;98133.41;4824774;28;103960;-78
2020/12/09 10:27:37;;;;;;;;;3.00;3.00;;;;;12.48;51.69;98131.75;4842305;28;102433;-77
2020/12/09 10:30:04;;;;;;;;;4.50;2.00;;;;;12.47;51.25;98132.81;4844648;28;102813;-78
2020/12/09 10:32:31;;;;;;;;;3.00;3.00;;;;;12.47;51.27;98130.09;4842881;28;104170;-78
2020/12/09 10:34:58;;;;;;;;;3.00;2.00;;;;;12.47;52.28;98123.88;4842582;28;103650;-78
2020/12/09 10:37:24;;;;;;;;;3.75;3.00;;;;;12.47;52.11;98124.66;4841920;28;102461;-77
2020/12/09 10:39:54;;;;;;;;;2.75;2.75;;;;;12.48;51.89;98125.50;4842696;28;102924;-78
2020/12/09 10:42:21;;;;;;;;;3.00;2.25;;;;;12.47;51.87;98115.72;4837117;28;104515;-78
2020/12/09 10:44:48;;;;;;;;;3.00;2.00;;;;;12.46;51.49;98116.78;4840811;28;102284;-78
2020/12/09 10:47:15;;;;;;;;;2.50;2.50;;;;;12.45;52.00;98118.66;4843313;28;102426;-78
2020/12/09 10:49:44;;;;;;;;;3.00;2.00;;;;;12.46;51.96;98114.06;4843818;28;102142;-78
2020/12/09 10:52:12;;;;;;;;;4.00;3.00;;;;;12.46;51.41;98117.59;4838167;28;104096;-77
2020/12/09 10:54:39;;;;;;;;;3.00;3.00;;;;;12.45;52.14;98115.94;4837383;28;102129;-78
2020/12/09 10:57:12;;;;;;;;;2.00;2.00;;;;;12.44;51.41;98108.03;4849174;28;102765;-78
2020/12/09 10:59:38;;;;;;;;;3.50;2.00;;;;;12.44;51.19;98108.03;4838517;28;102172;-78
2020/12/09 11:02:06;;;;;;;;;4.00;2.50;;;;;12.43;51.74;98115.31;4842127;28;104237;-78
2020/12/09 11:04:33;;;;;;;;;2.50;2.50;;;;;12.44;51.33;98099.88;4839259;28;102533;-78
2020/12/09 11:07:08;;;;;;;;;3.00;3.00;;;;;12.44;51.86;98095.28;4843798;28;102540;-79
2020/12/09 11:09:35;;;;;;;;;2.00;2.00;;;;;12.42;52.24;98094.72;4842899;28;102253;-79
2020/12/09 11:12:03;;;;;;;;;2.25;2.25;;;;;12.43;51.70;98093.63;4836985;28;104128;-78
2020/12/09 11:14:29;;;;;;;;;2.50;2.00;;;;;12.41;51.91;98093.03;4843196;28;102120;-78
2020/12/09 11:16:56;;;;;;;;;5.25;2.00;;;;;12.42;52.18;98083.88;4845096;28;103446;-79
2020/12/09 11:19:23;;;;;;;;;5.00;3.00;;;;;12.41;52.14;98086.78;4843365;28;102131;-78
2020/12/09 11:21:53;;;;;;;;;3.00;2.75;;;;;12.40;51.86;98083.25;4839210;28;104029;-78
2020/12/09 11:24:20;;;;;;;;;2.00;1.25;;;;;12.41;51.54;98084.09;4841654;28;102156;-78
2020/12/09 11:26:46;;;;;;;;;2.25;1.75;;;;;12.40;51.30;98085.13;4838175;28;102579;-79
2020/12/09 11:29:13;;;;;;;;;2.75;2.00;;;;;12.39;51.93;98084.28;4841165;28;102394;-78
2020/12/09 11:31:40;;;;;;;;;3.00;3.00;;;;;12.39;51.79;98072.63;4842875;28;104348;-78